39.2°F
Current conditions from King Hill
Updated every 5 minutes
 
  Saturday April 19, 2014

Station Historical Data
Daily Summary for January 30, 2012 Units:  Both    English   Metric
« Previous Day
Next Day »
Daily Weekly Monthly Yearly Custom
  High: Low: Average:
Temperature: 28.3 °F /  -2.1 °C 11.9 °F /  -11.2 °C 20.8 °F /  -6.2 °C
Dew Point: 24.6 °F /  -4.1 °C 4.4 °F /  -15.3 °C 11.6 °F /  -11.3 °C
Humidity: 88% 49% 68%
Wind Speed: 8.0mph /  12.9km/h - 3.9mph /  6.3km/h
Wind Gust: 19.0mph /  30.6km/h - -
Wind- - NW
Pressure: 30.22 in /  1023.2 hPa 29.90 in /  1012.4 hPa -
Precipitation: 0.00 in /  0 mm    
Historical Graphs
 
 
Tabular Data for January 30, 2012
Time Temperature Dew Point Pressure Wind Wind Speed Wind Gust Humidity Daily Rainfall
00:00 28.3 °F /  -2.1 °C 24.4 °F /  -4.2 °C 29.90in /  1012.4hPa WSW 1.0mph /  1.6km/h 3.0mph /  4.8km/h 85% 0.00in /  0mm
00:05 28.2 °F /  -2.1 °C 24.6 °F /  -4.1 °C 29.90in /  1012.4hPa WSW 2.0mph /  3.2km/h 4.0mph /  6.4km/h 86% 0.00in /  0mm
00:09 28.1 °F /  -2.2 °C 24.5 °F /  -4.2 °C 29.90in /  1012.4hPa WSW 2.0mph /  3.2km/h 5.0mph /  8km/h 86% 0.00in /  0mm
00:15 28.0 °F /  -2.2 °C 24.4 °F /  -4.2 °C 29.90in /  1012.4hPa WSW 5.0mph /  8km/h 10.0mph /  16.1km/h 86% 0.00in /  0mm
00:20 27.8 °F /  -2.3 °C 24.2 °F /  -4.3 °C 29.90in /  1012.4hPa West 4.0mph /  6.4km/h 10.0mph /  16.1km/h 86% 0.00in /  0mm
00:25 27.6 °F /  -2.4 °C 24.0 °F /  -4.4 °C 29.90in /  1012.4hPa West 7.0mph /  11.3km/h 10.0mph /  16.1km/h 86% 0.00in /  0mm
00:30 27.5 °F /  -2.5 °C 23.9 °F /  -4.5 °C 29.90in /  1012.4hPa WNW 4.0mph /  6.4km/h 10.0mph /  16.1km/h 86% 0.00in /  0mm
00:35 27.4 °F /  -2.6 °C 23.8 °F /  -4.6 °C 29.90in /  1012.4hPa WNW 4.0mph /  6.4km/h 8.0mph /  12.9km/h 86% 0.00in /  0mm
00:40 27.2 °F /  -2.7 °C 23.6 °F /  -4.7 °C 29.90in /  1012.4hPa WNW 4.0mph /  6.4km/h 8.0mph /  12.9km/h 86% 0.00in /  0mm
00:45 27.1 °F /  -2.7 °C 23.5 °F /  -4.7 °C 29.90in /  1012.4hPa West 5.0mph /  8km/h 9.0mph /  14.5km/h 86% 0.00in /  0mm
00:49 27.0 °F /  -2.8 °C 23.7 °F /  -4.6 °C 29.90in /  1012.4hPa WNW 4.0mph /  6.4km/h 9.0mph /  14.5km/h 87% 0.00in /  0mm
00:55 27.0 °F /  -2.8 °C 23.7 °F /  -4.6 °C 29.90in /  1012.4hPa WNW 5.0mph /  8km/h 9.0mph /  14.5km/h 87% 0.00in /  0mm
01:00 26.9 °F /  -2.8 °C 23.6 °F /  -4.7 °C 29.90in /  1012.4hPa WNW 4.0mph /  6.4km/h 8.0mph /  12.9km/h 87% 0.00in /  0mm
01:05 26.9 °F /  -2.8 °C 23.6 °F /  -4.7 °C 29.90in /  1012.4hPa WNW 2.0mph /  3.2km/h 6.0mph /  9.7km/h 87% 0.00in /  0mm
01:09 26.9 °F /  -2.8 °C 23.6 °F /  -4.7 °C 29.90in /  1012.4hPa NW 3.0mph /  4.8km/h 6.0mph /  9.7km/h 87% 0.00in /  0mm
01:15 26.9 °F /  -2.8 °C 23.6 °F /  -4.7 °C 29.90in /  1012.4hPa NW 3.0mph /  4.8km/h 6.0mph /  9.7km/h 87% 0.00in /  0mm
01:20 26.9 °F /  -2.8 °C 23.8 °F /  -4.6 °C 29.90in /  1012.4hPa West 3.0mph /  4.8km/h 7.0mph /  11.3km/h 88% 0.00in /  0mm
01:25 26.7 °F /  -2.9 °C 23.4 °F /  -4.8 °C 29.90in /  1012.4hPa West 2.0mph /  3.2km/h 7.0mph /  11.3km/h 87% 0.00in /  0mm
01:30 26.7 °F /  -2.9 °C 23.4 °F /  -4.8 °C 29.90in /  1012.4hPa Calm   5.0mph /  8km/h 87% 0.00in /  0mm
01:35 26.6 °F /  -3 °C 23.3 °F /  -4.8 °C 29.90in /  1012.4hPa West 1.0mph /  1.6km/h 4.0mph /  6.4km/h 87% 0.00in /  0mm
01:40 26.5 °F /  -3.1 °C 23.2 °F /  -4.9 °C 29.91in /  1012.8hPa West 1.0mph /  1.6km/h 3.0mph /  4.8km/h 87% 0.00in /  0mm
01:44 26.4 °F /  -3.1 °C 23.1 °F /  -4.9 °C 29.91in /  1012.8hPa Calm   3.0mph /  4.8km/h 87% 0.00in /  0mm
01:50 26.4 °F /  -3.1 °C 22.8 °F /  -5.1 °C 29.91in /  1012.8hPa NW 3.0mph /  4.8km/h 7.0mph /  11.3km/h 86% 0.00in /  0mm
01:55 26.4 °F /  -3.1 °C 22.8 °F /  -5.1 °C 29.91in /  1012.8hPa NW 3.0mph /  4.8km/h 7.0mph /  11.3km/h 86% 0.00in /  0mm
02:00 26.4 °F /  -3.1 °C 22.5 °F /  -5.3 °C 29.91in /  1012.8hPa NW 6.0mph /  9.7km/h 11.0mph /  17.7km/h 85% 0.00in /  0mm
02:04 26.5 °F /  -3.1 °C 22.3 °F /  -5.4 °C 29.91in /  1012.8hPa NW 5.0mph /  8km/h 11.0mph /  17.7km/h 84% 0.00in /  0mm
02:09 26.5 °F /  -3.1 °C 22.0 °F /  -5.6 °C 29.91in /  1012.8hPa WNW 4.0mph /  6.4km/h 8.0mph /  12.9km/h 83% 0.00in /  0mm
02:15 26.5 °F /  -3.1 °C 21.8 °F /  -5.7 °C 29.91in /  1012.8hPa NW 2.0mph /  3.2km/h 7.0mph /  11.3km/h 82% 0.00in /  0mm
02:20 26.5 °F /  -3.1 °C 21.8 °F /  -5.7 °C 29.91in /  1012.8hPa NW 1.0mph /  1.6km/h 6.0mph /  9.7km/h 82% 0.00in /  0mm
02:25 26.5 °F /  -3.1 °C 21.8 °F /  -5.7 °C 29.92in /  1013.1hPa NW 1.0mph /  1.6km/h 6.0mph /  9.7km/h 82% 0.00in /  0mm
02:30 26.5 °F /  -3.1 °C 21.5 °F /  -5.8 °C 29.92in /  1013.1hPa NW 3.0mph /  4.8km/h 7.0mph /  11.3km/h 81% 0.00in /  0mm
02:35 26.5 °F /  -3.1 °C 21.5 °F /  -5.8 °C 29.92in /  1013.1hPa Calm   7.0mph /  11.3km/h 81% 0.00in /  0mm
02:40 26.5 °F /  -3.1 °C 21.5 °F /  -5.8 °C 29.92in /  1013.1hPa Calm   2.0mph /  3.2km/h 81% 0.00in /  0mm
02:45 26.4 °F /  -3.1 °C 21.4 °F /  -5.9 °C 29.92in /  1013.1hPa West 1.0mph /  1.6km/h 4.0mph /  6.4km/h 81% 0.00in /  0mm
02:50 26.4 °F /  -3.1 °C 21.1 °F /  -6.1 °C 29.92in /  1013.1hPa WNW 2.0mph /  3.2km/h 5.0mph /  8km/h 80% 0.00in /  0mm
02:55 26.4 °F /  -3.1 °C 21.1 °F /  -6.1 °C 29.92in /  1013.1hPa NW 1.0mph /  1.6km/h 5.0mph /  8km/h 80% 0.00in /  0mm
03:00 26.4 °F /  -3.1 °C 21.1 °F /  -6.1 °C 29.92in /  1013.1hPa WNW 3.0mph /  4.8km/h 9.0mph /  14.5km/h 80% 0.00in /  0mm
03:04 26.5 °F /  -3.1 °C 20.9 °F /  -6.2 °C 29.93in /  1013.4hPa NW 3.0mph /  4.8km/h 9.0mph /  14.5km/h 79% 0.00in /  0mm
03:10 26.5 °F /  -3.1 °C 20.9 °F /  -6.2 °C 29.93in /  1013.4hPa NW 2.0mph /  3.2km/h 8.0mph /  12.9km/h 79% 0.00in /  0mm
03:14 26.4 °F /  -3.1 °C 20.5 °F /  -6.4 °C 29.93in /  1013.4hPa Calm   7.0mph /  11.3km/h 78% 0.00in /  0mm
03:20 26.3 °F /  -3.2 °C 20.4 °F /  -6.4 °C 29.94in /  1013.8hPa WNW 5.0mph /  8km/h 7.0mph /  11.3km/h 78% 0.00in /  0mm
03:25 26.4 °F /  -3.1 °C 20.5 °F /  -6.4 °C 29.94in /  1013.8hPa NW 1.0mph /  1.6km/h 7.0mph /  11.3km/h 78% 0.00in /  0mm
03:35 26.3 °F /  -3.2 °C 20.4 °F /  -6.4 °C 29.94in /  1013.8hPa NW 3.0mph /  4.8km/h 5.0mph /  8km/h 78% 0.00in /  0mm
03:40 26.3 °F /  -3.2 °C 20.4 °F /  -6.4 °C 29.95in /  1014.1hPa NW 2.0mph /  3.2km/h 11.0mph /  17.7km/h 78% 0.00in /  0mm
03:45 26.3 °F /  -3.2 °C 20.1 °F /  -6.6 °C 29.95in /  1014.1hPa NW 3.0mph /  4.8km/h 11.0mph /  17.7km/h 77% 0.00in /  0mm
03:50 26.2 °F /  -3.2 °C 20.0 °F /  -6.7 °C 29.95in /  1014.1hPa WNW 2.0mph /  3.2km/h 7.0mph /  11.3km/h 77% 0.00in /  0mm
03:55 26.1 °F /  -3.3 °C 19.9 °F /  -6.7 °C 29.95in /  1014.1hPa NW 4.0mph /  6.4km/h 10.0mph /  16.1km/h 77% 0.00in /  0mm
03:59 25.9 °F /  -3.4 °C 19.4 °F /  -7 °C 29.96in /  1014.4hPa NW 4.0mph /  6.4km/h 10.0mph /  16.1km/h 76% 0.00in /  0mm
04:05 25.7 °F /  -3.5 °C 19.2 °F /  -7.1 °C 29.96in /  1014.4hPa NW 2.0mph /  3.2km/h 9.0mph /  14.5km/h 76% 0.00in /  0mm
04:10 25.6 °F /  -3.6 °C 19.1 °F /  -7.2 °C 29.96in /  1014.4hPa NNW 2.0mph /  3.2km/h 9.0mph /  14.5km/h 76% 0.00in /  0mm
04:15 25.4 °F /  -3.7 °C 18.9 °F /  -7.3 °C 29.96in /  1014.4hPa NW 4.0mph /  6.4km/h 10.0mph /  16.1km/h 76% 0.00in /  0mm
04:19 25.4 °F /  -3.7 °C 18.6 °F /  -7.4 °C 29.96in /  1014.4hPa NNW 2.0mph /  3.2km/h 10.0mph /  16.1km/h 75% 0.00in /  0mm
04:25 25.2 °F /  -3.8 °C 18.1 °F /  -7.7 °C 29.97in /  1014.8hPa NW 4.0mph /  6.4km/h 10.0mph /  16.1km/h 74% 0.00in /  0mm
04:30 25.2 °F /  -3.8 °C 18.1 °F /  -7.7 °C 29.97in /  1014.8hPa NNW 5.0mph /  8km/h 12.0mph /  19.3km/h 74% 0.00in /  0mm
04:35 25.1 °F /  -3.8 °C 17.7 °F /  -7.9 °C 29.97in /  1014.8hPa NW 2.0mph /  3.2km/h 14.0mph /  22.5km/h 73% 0.00in /  0mm
04:40 25.0 °F /  -3.9 °C 17.6 °F /  -8 °C 29.98in /  1015.1hPa NW 7.0mph /  11.3km/h 14.0mph /  22.5km/h 73% 0.00in /  0mm
04:44 25.0 °F /  -3.9 °C 17.9 °F /  -7.8 °C 29.98in /  1015.1hPa NNW 4.0mph /  6.4km/h 14.0mph /  22.5km/h 74% 0.00in /  0mm
04:50 24.9 °F /  -3.9 °C 17.8 °F /  -7.9 °C 29.98in /  1015.1hPa NNW 4.0mph /  6.4km/h 15.0mph /  24.1km/h 74% 0.00in /  0mm
04:55 24.8 °F /  -4 °C 17.7 °F /  -7.9 °C 29.99in /  1015.5hPa NNW 5.0mph /  8km/h 15.0mph /  24.1km/h 74% 0.00in /  0mm
04:59 24.7 °F /  -4.1 °C 17.6 °F /  -8 °C 29.99in /  1015.5hPa NW 5.0mph /  8km/h 11.0mph /  17.7km/h 74% 0.00in /  0mm
05:04 24.5 °F /  -4.2 °C 17.7 °F /  -7.9 °C 29.99in /  1015.5hPa NNW 5.0mph /  8km/h 11.0mph /  17.7km/h 75% 0.00in /  0mm
05:10 24.4 °F /  -4.2 °C 17.3 °F /  -8.2 °C 29.99in /  1015.5hPa NNW 4.0mph /  6.4km/h 11.0mph /  17.7km/h 74% 0.00in /  0mm
05:15 24.3 °F /  -4.3 °C 17.5 °F /  -8.1 °C 29.99in /  1015.5hPa NNW 4.0mph /  6.4km/h 8.0mph /  12.9km/h 75% 0.00in /  0mm
05:19 24.2 °F /  -4.3 °C 17.4 °F /  -8.1 °C 30.00in /  1015.8hPa NNW 4.0mph /  6.4km/h 11.0mph /  17.7km/h 75% 0.00in /  0mm
05:25 24.1 °F /  -4.4 °C 17.6 °F /  -8 °C 30.00in /  1015.8hPa NNW 5.0mph /  8km/h 11.0mph /  17.7km/h 76% 0.00in /  0mm
05:30 23.9 °F /  -4.5 °C 17.4 °F /  -8.1 °C 30.00in /  1015.8hPa NNW 4.0mph /  6.4km/h 10.0mph /  16.1km/h 76% 0.00in /  0mm
05:34 23.7 °F /  -4.6 °C 17.2 °F /  -8.2 °C 30.00in /  1015.8hPa NNW 3.0mph /  4.8km/h 12.0mph /  19.3km/h 76% 0.00in /  0mm
05:40 23.4 °F /  -4.8 °C 16.6 °F /  -8.6 °C 30.01in /  1016.1hPa NW 7.0mph /  11.3km/h 15.0mph /  24.1km/h 75% 0.00in /  0mm
05:45 23.0 °F /  -5 °C 16.0 °F /  -8.9 °C 30.01in /  1016.1hPa North 5.0mph /  8km/h 15.0mph /  24.1km/h 74% 0.00in /  0mm
05:50 22.6 °F /  -5.2 °C 15.6 °F /  -9.1 °C 30.02in /  1016.5hPa NW 5.0mph /  8km/h 15.0mph /  24.1km/h 74% 0.00in /  0mm
05:54 22.3 °F /  -5.4 °C 15.6 °F /  -9.1 °C 30.02in /  1016.5hPa NW 6.0mph /  9.7km/h 13.0mph /  20.9km/h 75% 0.00in /  0mm
06:00 22.1 °F /  -5.5 °C 15.4 °F /  -9.2 °C 30.03in /  1016.8hPa NW 5.0mph /  8km/h 10.0mph /  16.1km/h 75% 0.00in /  0mm
06:04 22.0 °F /  -5.6 °C 15.3 °F /  -9.3 °C 30.03in /  1016.8hPa NW 3.0mph /  4.8km/h 10.0mph /  16.1km/h 75% 0.00in /  0mm
06:09 21.9 °F /  -5.6 °C 15.5 °F /  -9.2 °C 30.04in /  1017.2hPa North 6.0mph /  9.7km/h 14.0mph /  22.5km/h 76% 0.00in /  0mm
06:15 21.7 °F /  -5.7 °C 14.7 °F /  -9.6 °C 30.04in /  1017.2hPa NW 7.0mph /  11.3km/h 14.0mph /  22.5km/h 74% 0.00in /  0mm
06:20 21.6 °F /  -5.8 °C 14.0 °F /  -10 °C 30.04in /  1017.2hPa NW 4.0mph /  6.4km/h 17.0mph /  27.4km/h 72% 0.00in /  0mm
06:30 21.3 °F /  -5.9 °C 13.0 °F /  -10.6 °C 30.05in /  1017.5hPa NNW 2.0mph /  3.2km/h 14.0mph /  22.5km/h 70% 0.00in /  0mm
06:35 21.2 °F /  -6 °C 12.6 °F /  -10.8 °C 30.05in /  1017.5hPa NW 7.0mph /  11.3km/h 19.0mph /  30.6km/h 69% 0.00in /  0mm
06:40 20.9 °F /  -6.2 °C 12.0 °F /  -11.1 °C 30.05in /  1017.5hPa NW 4.0mph /  6.4km/h 19.0mph /  30.6km/h 68% 0.00in /  0mm
06:44 20.7 °F /  -6.3 °C 11.8 °F /  -11.2 °C 30.05in /  1017.5hPa NW 7.0mph /  11.3km/h 16.0mph /  25.7km/h 68% 0.00in /  0mm
06:50 20.3 °F /  -6.5 °C 11.1 °F /  -11.6 °C 30.06in /  1017.8hPa WNW 4.0mph /  6.4km/h 15.0mph /  24.1km/h 67% 0.00in /  0mm
06:54 19.9 °F /  -6.7 °C 10.7 °F /  -11.8 °C 30.06in /  1017.8hPa NNW 2.0mph /  3.2km/h 9.0mph /  14.5km/h 67% 0.00in /  0mm
07:00 19.7 °F /  -6.8 °C 10.5 °F /  -11.9 °C 30.06in /  1017.8hPa NW 3.0mph /  4.8km/h 8.0mph /  12.9km/h 67% 0.00in /  0mm
07:04 19.2 °F /  -7.1 °C 10.0 °F /  -12.2 °C 30.06in /  1017.8hPa NW 3.0mph /  4.8km/h 8.0mph /  12.9km/h 67% 0.00in /  0mm
07:09 18.9 °F /  -7.3 °C 9.8 °F /  -12.3 °C 30.06in /  1017.8hPa NW 1.0mph /  1.6km/h 8.0mph /  12.9km/h 67% 0.00in /  0mm
07:15 18.7 °F /  -7.4 °C 9.9 °F /  -12.3 °C 30.06in /  1017.8hPa NW 3.0mph /  4.8km/h 6.0mph /  9.7km/h 68% 0.00in /  0mm
07:19 18.6 °F /  -7.4 °C 9.8 °F /  -12.3 °C 30.07in /  1018.2hPa NW 4.0mph /  6.4km/h 8.0mph /  12.9km/h 68% 0.00in /  0mm
07:25 18.6 °F /  -7.4 °C 9.8 °F /  -12.3 °C 30.07in /  1018.2hPa NW 5.0mph /  8km/h 12.0mph /  19.3km/h 68% 0.00in /  0mm
07:29 18.8 °F /  -7.3 °C 10.0 °F /  -12.2 °C 30.08in /  1018.5hPa NW 4.0mph /  6.4km/h 12.0mph /  19.3km/h 68% 0.00in /  0mm
07:34 18.7 °F /  -7.4 °C 9.9 °F /  -12.3 °C 30.08in /  1018.5hPa NW 3.0mph /  4.8km/h 11.0mph /  17.7km/h 68% 0.00in /  0mm
07:40 18.5 °F /  -7.5 °C 9.4 °F /  -12.6 °C 30.08in /  1018.5hPa NW 3.0mph /  4.8km/h 9.0mph /  14.5km/h 67% 0.00in /  0mm
07:45 18.3 °F /  -7.6 °C 9.2 °F /  -12.7 °C 30.08in /  1018.5hPa NNW 5.0mph /  8km/h 11.0mph /  17.7km/h 67% 0.00in /  0mm
07:50 18.2 °F /  -7.7 °C 9.1 °F /  -12.7 °C 30.08in /  1018.5hPa NNW 3.0mph /  4.8km/h 11.0mph /  17.7km/h 67% 0.00in /  0mm
07:54 18.0 °F /  -7.8 °C 8.9 °F /  -12.8 °C 30.08in /  1018.5hPa NNW 2.0mph /  3.2km/h 10.0mph /  16.1km/h 67% 0.00in /  0mm
07:59 17.7 °F /  -7.9 °C 8.9 °F /  -12.8 °C 30.08in /  1018.5hPa NNW 3.0mph /  4.8km/h 7.0mph /  11.3km/h 68% 0.00in /  0mm
08:04 17.5 °F /  -8.1 °C 8.7 °F /  -12.9 °C 30.08in /  1018.5hPa Calm   7.0mph /  11.3km/h 68% 0.00in /  0mm
08:10 17.4 °F /  -8.1 °C 9.0 °F /  -12.8 °C 30.09in /  1018.8hPa Calm   7.0mph /  11.3km/h 69% 0.00in /  0mm
08:14 17.3 °F /  -8.2 °C 8.9 °F /  -12.8 °C 30.09in /  1018.8hPa NNW 2.0mph /  3.2km/h 7.0mph /  11.3km/h 69% 0.00in /  0mm
08:19 17.3 °F /  -8.2 °C 9.2 °F /  -12.7 °C 30.09in /  1018.8hPa NW 3.0mph /  4.8km/h 7.0mph /  11.3km/h 70% 0.00in /  0mm
08:25 17.5 °F /  -8.1 °C 9.4 °F /  -12.6 °C 30.09in /  1018.8hPa NW 2.0mph /  3.2km/h 6.0mph /  9.7km/h 70% 0.00in /  0mm
08:30 17.7 °F /  -7.9 °C 9.6 °F /  -12.4 °C 30.10in /  1019.2hPa NW 1.0mph /  1.6km/h 6.0mph /  9.7km/h 70% 0.00in /  0mm
08:34 17.8 °F /  -7.9 °C 9.4 °F /  -12.6 °C 30.10in /  1019.2hPa NW 2.0mph /  3.2km/h 12.0mph /  19.3km/h 69% 0.00in /  0mm
08:40 17.9 °F /  -7.8 °C 9.5 °F /  -12.5 °C 30.10in /  1019.2hPa NW 1.0mph /  1.6km/h 12.0mph /  19.3km/h 69% 0.00in /  0mm
08:44 17.9 °F /  -7.8 °C 9.5 °F /  -12.5 °C 30.10in /  1019.2hPa NW 4.0mph /  6.4km/h 10.0mph /  16.1km/h 69% 0.00in /  0mm
08:49 18.0 °F /  -7.8 °C 9.9 °F /  -12.3 °C 30.10in /  1019.2hPa NW 4.0mph /  6.4km/h 10.0mph /  16.1km/h 70% 0.00in /  0mm
08:54 18.4 °F /  -7.6 °C 10.3 °F /  -12.1 °C 30.11in /  1019.5hPa NNW 3.0mph /  4.8km/h 9.0mph /  14.5km/h 70% 0.00in /  0mm
08:59 18.6 °F /  -7.4 °C 10.1 °F /  -12.2 °C 30.11in /  1019.5hPa NNW 5.0mph /  8km/h 10.0mph /  16.1km/h 69% 0.00in /  0mm
09:05 18.9 °F /  -7.3 °C 10.4 °F /  -12 °C 30.11in /  1019.5hPa NW 4.0mph /  6.4km/h 10.0mph /  16.1km/h 69% 0.00in /  0mm
09:09 19.4 °F /  -7 °C 10.6 °F /  -11.9 °C 30.11in /  1019.5hPa NW 5.0mph /  8km/h 10.0mph /  16.1km/h 68% 0.00in /  0mm
09:14 19.5 °F /  -6.9 °C 10.7 °F /  -11.8 °C 30.12in /  1019.9hPa NW 6.0mph /  9.7km/h 11.0mph /  17.7km/h 68% 0.00in /  0mm
09:19 19.4 °F /  -7 °C 10.9 °F /  -11.7 °C 30.12in /  1019.9hPa NNW 4.0mph /  6.4km/h 11.0mph /  17.7km/h 69% 0.00in /  0mm
09:25 19.3 °F /  -7.1 °C 10.8 °F /  -11.8 °C 30.13in /  1020.2hPa North 3.0mph /  4.8km/h 8.0mph /  12.9km/h 69% 0.00in /  0mm
09:29 19.4 °F /  -7 °C 10.9 °F /  -11.7 °C 30.13in /  1020.2hPa NNW 4.0mph /  6.4km/h 8.0mph /  12.9km/h 69% 0.00in /  0mm
09:34 19.6 °F /  -6.9 °C 11.4 °F /  -11.4 °C 30.13in /  1020.2hPa NNW 3.0mph /  4.8km/h 8.0mph /  12.9km/h 70% 0.00in /  0mm
09:40 19.7 °F /  -6.8 °C 11.2 °F /  -11.6 °C 30.13in /  1020.2hPa NW 5.0mph /  8km/h 10.0mph /  16.1km/h 69% 0.00in /  0mm
09:50 19.3 °F /  -7.1 °C 11.1 °F /  -11.6 °C 30.14in /  1020.5hPa NW 1.0mph /  1.6km/h 7.0mph /  11.3km/h 70% 0.00in /  0mm
09:54 19.2 °F /  -7.1 °C 11.0 °F /  -11.7 °C 30.14in /  1020.5hPa NNW 5.0mph /  8km/h 7.0mph /  11.3km/h 70% 0.00in /  0mm
09:59 18.7 °F /  -7.4 °C 10.9 °F /  -11.7 °C 30.14in /  1020.5hPa NNW 5.0mph /  8km/h 10.0mph /  16.1km/h 71% 0.00in /  0mm
10:04 18.9 °F /  -7.3 °C 11.1 °F /  -11.6 °C 30.14in /  1020.5hPa NNW 2.0mph /  3.2km/h 10.0mph /  16.1km/h 71% 0.00in /  0mm
10:09 19.4 °F /  -7 °C 11.2 °F /  -11.6 °C 30.14in /  1020.5hPa NW 1.0mph /  1.6km/h 9.0mph /  14.5km/h 70% 0.00in /  0mm
10:14 19.8 °F /  -6.8 °C 11.3 °F /  -11.5 °C 30.15in /  1020.9hPa NNW 5.0mph /  8km/h 11.0mph /  17.7km/h 69% 0.00in /  0mm
10:19 20.0 °F /  -6.7 °C 11.1 °F /  -11.6 °C 30.15in /  1020.9hPa NW 4.0mph /  6.4km/h 11.0mph /  17.7km/h 68% 0.00in /  0mm
10:25 19.9 °F /  -6.7 °C 10.7 °F /  -11.8 °C 30.15in /  1020.9hPa NW 4.0mph /  6.4km/h 11.0mph /  17.7km/h 67% 0.00in /  0mm
10:35 21.1 °F /  -6.1 °C 11.5 °F /  -11.4 °C 30.16in /  1021.2hPa NNW 3.0mph /  4.8km/h 7.0mph /  11.3km/h 66% 0.00in /  0mm
10:39 21.4 °F /  -5.9 °C 11.1 °F /  -11.6 °C 30.16in /  1021.2hPa North 1.0mph /  1.6km/h 11.0mph /  17.7km/h 64% 0.00in /  0mm
10:45 20.9 °F /  -6.2 °C 10.3 °F /  -12.1 °C 30.16in /  1021.2hPa NW 3.0mph /  4.8km/h 11.0mph /  17.7km/h 63% 0.00in /  0mm
10:50 20.8 °F /  -6.2 °C 10.2 °F /  -12.1 °C 30.17in /  1021.6hPa NNW 4.0mph /  6.4km/h 9.0mph /  14.5km/h 63% 0.00in /  0mm
10:54 21.0 °F /  -6.1 °C 10.4 °F /  -12 °C 30.17in /  1021.6hPa NNW 4.0mph /  6.4km/h 7.0mph /  11.3km/h 63% 0.00in /  0mm
10:59 21.2 °F /  -6 °C 10.2 °F /  -12.1 °C 30.17in /  1021.6hPa NW 5.0mph /  8km/h 9.0mph /  14.5km/h 62% 0.00in /  0mm
11:04 21.2 °F /  -6 °C 9.8 °F /  -12.3 °C 30.17in /  1021.6hPa WNW 4.0mph /  6.4km/h 9.0mph /  14.5km/h 61% 0.00in /  0mm
11:09 21.2 °F /  -6 °C 10.2 °F /  -12.1 °C 30.16in /  1021.2hPa Calm   8.0mph /  12.9km/h 62% 0.00in /  0mm
11:14 21.7 °F /  -5.7 °C 10.3 °F /  -12.1 °C 30.16in /  1021.2hPa WNW 3.0mph /  4.8km/h 8.0mph /  12.9km/h 61% 0.00in /  0mm
11:19 21.5 °F /  -5.8 °C 9.8 °F /  -12.3 °C 30.16in /  1021.2hPa West 5.0mph /  8km/h 8.0mph /  12.9km/h 60% 0.00in /  0mm
11:25 21.1 °F /  -6.1 °C 9.8 °F /  -12.3 °C 30.16in /  1021.2hPa West 3.0mph /  4.8km/h 10.0mph /  16.1km/h 61% 0.00in /  0mm
11:29 21.2 °F /  -6 °C 9.8 °F /  -12.3 °C 30.16in /  1021.2hPa West 6.0mph /  9.7km/h 10.0mph /  16.1km/h 61% 0.00in /  0mm
11:34 21.4 °F /  -5.9 °C 9.7 °F /  -12.4 °C 30.16in /  1021.2hPa NW 2.0mph /  3.2km/h 9.0mph /  14.5km/h 60% 0.00in /  0mm
11:39 21.6 °F /  -5.8 °C 9.5 °F /  -12.5 °C 30.16in /  1021.2hPa NNW 3.0mph /  4.8km/h 11.0mph /  17.7km/h 59% 0.00in /  0mm
11:44 21.8 °F /  -5.7 °C 9.7 °F /  -12.4 °C 30.15in /  1020.9hPa Calm   11.0mph /  17.7km/h 59% 0.00in /  0mm
11:50 22.2 °F /  -5.4 °C 10.0 °F /  -12.2 °C 30.16in /  1021.2hPa West 4.0mph /  6.4km/h 9.0mph /  14.5km/h 59% 0.00in /  0mm
11:59 21.6 °F /  -5.8 °C 8.7 °F /  -12.9 °C 30.15in /  1020.9hPa NW 4.0mph /  6.4km/h 12.0mph /  19.3km/h 57% 0.00in /  0mm
12:04 21.4 °F /  -5.9 °C 9.3 °F /  -12.6 °C 30.16in /  1021.2hPa NW 4.0mph /  6.4km/h 12.0mph /  19.3km/h 59% 0.00in /  0mm
12:09 21.6 °F /  -5.8 °C 9.1 °F /  -12.7 °C 30.15in /  1020.9hPa NNW 5.0mph /  8km/h 10.0mph /  16.1km/h 58% 0.00in /  0mm
12:14 21.2 °F /  -6 °C 8.7 °F /  -12.9 °C 30.16in /  1021.2hPa WNW 5.0mph /  8km/h 10.0mph /  16.1km/h 58% 0.00in /  0mm
12:20 20.9 °F /  -6.2 °C 8.4 °F /  -13.1 °C 30.15in /  1020.9hPa WNW 6.0mph /  9.7km/h 15.0mph /  24.1km/h 58% 0.00in /  0mm
12:29 21.8 °F /  -5.7 °C 9.3 °F /  -12.6 °C 30.15in /  1020.9hPa West 6.0mph /  9.7km/h 13.0mph /  20.9km/h 58% 0.00in /  0mm
12:34 22.7 °F /  -5.2 °C 9.4 °F /  -12.6 °C 30.14in /  1020.5hPa NW 6.0mph /  9.7km/h 12.0mph /  19.3km/h 56% 0.00in /  0mm
12:39 23.6 °F /  -4.7 °C 9.8 °F /  -12.3 °C 30.14in /  1020.5hPa WNW 4.0mph /  6.4km/h 10.0mph /  16.1km/h 55% 0.00in /  0mm
12:44 24.0 °F /  -4.4 °C 8.9 °F /  -12.8 °C 30.14in /  1020.5hPa WNW 6.0mph /  9.7km/h 11.0mph /  17.7km/h 52% 0.00in /  0mm
12:49 23.8 °F /  -4.6 °C 8.7 °F /  -12.9 °C 30.14in /  1020.5hPa WNW 6.0mph /  9.7km/h 11.0mph /  17.7km/h 52% 0.00in /  0mm
12:54 23.8 °F /  -4.6 °C 8.7 °F /  -12.9 °C 30.14in /  1020.5hPa West 6.0mph /  9.7km/h 13.0mph /  20.9km/h 52% 0.00in /  0mm
12:59 23.9 °F /  -4.5 °C 8.0 °F /  -13.3 °C 30.14in /  1020.5hPa West 7.0mph /  11.3km/h 13.0mph /  20.9km/h 50% 0.00in /  0mm
13:04 23.6 °F /  -4.7 °C 8.1 °F /  -13.3 °C 30.14in /  1020.5hPa West 8.0mph /  12.9km/h 14.0mph /  22.5km/h 51% 0.00in /  0mm
13:09 23.4 °F /  -4.8 °C 7.9 °F /  -13.4 °C 30.14in /  1020.5hPa WSW 6.0mph /  9.7km/h 14.0mph /  22.5km/h 51% 0.00in /  0mm
13:14 23.0 °F /  -5 °C 8.0 °F /  -13.3 °C 30.14in /  1020.5hPa WNW 3.0mph /  4.8km/h 10.0mph /  16.1km/h 52% 0.00in /  0mm
13:19 22.7 °F /  -5.2 °C 7.7 °F /  -13.5 °C 30.14in /  1020.5hPa West 3.0mph /  4.8km/h 10.0mph /  16.1km/h 52% 0.00in /  0mm
13:24 22.5 °F /  -5.3 °C 7.1 °F /  -13.8 °C 30.14in /  1020.5hPa WNW 4.0mph /  6.4km/h 8.0mph /  12.9km/h 51% 0.00in /  0mm
13:29 22.6 °F /  -5.2 °C 7.2 °F /  -13.8 °C 30.14in /  1020.5hPa NW 6.0mph /  9.7km/h 9.0mph /  14.5km/h 51% 0.00in /  0mm
13:34 22.9 °F /  -5.1 °C 7.5 °F /  -13.6 °C 30.14in /  1020.5hPa WSW 5.0mph /  8km/h 10.0mph /  16.1km/h 51% 0.00in /  0mm
13:39 23.5 °F /  -4.7 °C 8.4 °F /  -13.1 °C 30.14in /  1020.5hPa WSW 3.0mph /  4.8km/h 10.0mph /  16.1km/h 52% 0.00in /  0mm
13:44 24.0 °F /  -4.4 °C 8.9 °F /  -12.8 °C 30.14in /  1020.5hPa WNW 4.0mph /  6.4km/h 8.0mph /  12.9km/h 52% 0.00in /  0mm
13:49 24.1 °F /  -4.4 °C 9.0 °F /  -12.8 °C 30.14in /  1020.5hPa NNW 5.0mph /  8km/h 8.0mph /  12.9km/h 52% 0.00in /  0mm
13:54 23.6 °F /  -4.7 °C 9.0 °F /  -12.8 °C 30.14in /  1020.5hPa WSW 5.0mph /  8km/h 10.0mph /  16.1km/h 53% 0.00in /  0mm
13:59 23.2 °F /  -4.9 °C 8.2 °F /  -13.2 °C 30.14in /  1020.5hPa WNW 7.0mph /  11.3km/h 10.0mph /  16.1km/h 52% 0.00in /  0mm
14:05 22.9 °F /  -5.1 °C 8.7 °F /  -12.9 °C 30.15in /  1020.9hPa NW 4.0mph /  6.4km/h 10.0mph /  16.1km/h 54% 0.00in /  0mm
14:09 22.6 °F /  -5.2 °C 8.4 °F /  -13.1 °C 30.15in /  1020.9hPa West 4.0mph /  6.4km/h 10.0mph /  16.1km/h 54% 0.00in /  0mm
14:14 22.5 °F /  -5.3 °C 8.4 °F /  -13.1 °C 30.15in /  1020.9hPa WNW 6.0mph /  9.7km/h 9.0mph /  14.5km/h 54% 0.00in /  0mm
14:19 22.5 °F /  -5.3 °C 9.2 °F /  -12.7 °C 30.15in /  1020.9hPa NW 5.0mph /  8km/h 9.0mph /  14.5km/h 56% 0.00in /  0mm
14:24 22.5 °F /  -5.3 °C 9.6 °F /  -12.4 °C 30.15in /  1020.9hPa WSW 3.0mph /  4.8km/h 16.0mph /  25.7km/h 57% 0.00in /  0mm
14:29 22.6 °F /  -5.2 °C 9.7 °F /  -12.4 °C 30.16in /  1021.2hPa West 5.0mph /  8km/h 16.0mph /  25.7km/h 57% 0.00in /  0mm
14:34 22.7 °F /  -5.2 °C 9.4 °F /  -12.6 °C 30.16in /  1021.2hPa WNW 6.0mph /  9.7km/h 9.0mph /  14.5km/h 56% 0.00in /  0mm
14:40 22.9 °F /  -5.1 °C 9.1 °F /  -12.7 °C 30.16in /  1021.2hPa NW 6.0mph /  9.7km/h 11.0mph /  17.7km/h 55% 0.00in /  0mm
14:44 23.0 °F /  -5 °C 8.8 °F /  -12.9 °C 30.17in /  1021.6hPa NW 6.0mph /  9.7km/h 12.0mph /  19.3km/h 54% 0.00in /  0mm
14:49 22.9 °F /  -5.1 °C 8.3 °F /  -13.2 °C 30.17in /  1021.6hPa WNW 6.0mph /  9.7km/h 12.0mph /  19.3km/h 53% 0.00in /  0mm
14:54 22.8 °F /  -5.1 °C 8.2 °F /  -13.2 °C 30.17in /  1021.6hPa WNW 3.0mph /  4.8km/h 9.0mph /  14.5km/h 53% 0.00in /  0mm
14:59 22.8 °F /  -5.1 °C 8.2 °F /  -13.2 °C 30.17in /  1021.6hPa NW 7.0mph /  11.3km/h 17.0mph /  27.4km/h 53% 0.00in /  0mm
15:04 23.0 °F /  -5 °C 8.8 °F /  -12.9 °C 30.17in /  1021.6hPa WNW 4.0mph /  6.4km/h 17.0mph /  27.4km/h 54% 0.00in /  0mm
15:09 23.1 °F /  -4.9 °C 8.5 °F /  -13.1 °C 30.16in /  1021.2hPa WNW 5.0mph /  8km/h 11.0mph /  17.7km/h 53% 0.00in /  0mm
15:14 23.2 °F /  -4.9 °C 8.2 °F /  -13.2 °C 30.17in /  1021.6hPa WNW 4.0mph /  6.4km/h 12.0mph /  19.3km/h 52% 0.00in /  0mm
15:19 23.4 °F /  -4.8 °C 7.5 °F /  -13.6 °C 30.17in /  1021.6hPa WNW 7.0mph /  11.3km/h 17.0mph /  27.4km/h 50% 0.00in /  0mm
15:24 23.6 °F /  -4.7 °C 8.5 °F /  -13.1 °C 30.17in /  1021.6hPa West 7.0mph /  11.3km/h 17.0mph /  27.4km/h 52% 0.00in /  0mm
15:29 24.0 °F /  -4.4 °C 8.0 °F /  -13.3 °C 30.17in /  1021.6hPa NW 3.0mph /  4.8km/h 11.0mph /  17.7km/h 50% 0.00in /  0mm
15:34 24.2 °F /  -4.3 °C 8.2 °F /  -13.2 °C 30.17in /  1021.6hPa NW 5.0mph /  8km/h 13.0mph /  20.9km/h 50% 0.00in /  0mm
15:40 24.1 °F /  -4.4 °C 7.7 °F /  -13.5 °C 30.17in /  1021.6hPa WNW 6.0mph /  9.7km/h 13.0mph /  20.9km/h 49% 0.00in /  0mm
15:50 23.1 °F /  -4.9 °C 6.8 °F /  -14 °C 30.17in /  1021.6hPa WNW 7.0mph /  11.3km/h 18.0mph /  29km/h 49% 0.00in /  0mm
15:54 22.8 °F /  -5.1 °C 6.9 °F /  -13.9 °C 30.18in /  1021.9hPa NNW 6.0mph /  9.7km/h 18.0mph /  29km/h 50% 0.00in /  0mm
15:59 22.5 °F /  -5.3 °C 6.7 °F /  -14.1 °C 30.18in /  1021.9hPa NW 4.0mph /  6.4km/h 17.0mph /  27.4km/h 50% 0.00in /  0mm
16:04 22.3 °F /  -5.4 °C 6.5 °F /  -14.2 °C 30.18in /  1021.9hPa NW 6.0mph /  9.7km/h 14.0mph /  22.5km/h 50% 0.00in /  0mm
16:09 22.0 °F /  -5.6 °C 6.2 °F /  -14.3 °C 30.18in /  1021.9hPa NW 4.0mph /  6.4km/h 12.0mph /  19.3km/h 50% 0.00in /  0mm
16:14 21.8 °F /  -5.7 °C 6.4 °F /  -14.2 °C 30.18in /  1021.9hPa NNW 5.0mph /  8km/h 12.0mph /  19.3km/h 51% 0.00in /  0mm
16:19 21.7 °F /  -5.7 °C 6.3 °F /  -14.3 °C 30.18in /  1021.9hPa NW 2.0mph /  3.2km/h 11.0mph /  17.7km/h 51% 0.00in /  0mm
16:24 21.7 °F /  -5.7 °C 6.3 °F /  -14.3 °C 30.18in /  1021.9hPa NW 3.0mph /  4.8km/h 7.0mph /  11.3km/h 51% 0.00in /  0mm
16:29 21.8 °F /  -5.7 °C 6.0 °F /  -14.4 °C 30.18in /  1021.9hPa NW 6.0mph /  9.7km/h 11.0mph /  17.7km/h 50% 0.00in /  0mm
16:34 21.9 °F /  -5.6 °C 6.1 °F /  -14.4 °C 30.18in /  1021.9hPa NW 5.0mph /  8km/h 11.0mph /  17.7km/h 50% 0.00in /  0mm
16:39 21.8 °F /  -5.7 °C 6.0 °F /  -14.4 °C 30.18in /  1021.9hPa NW 5.0mph /  8km/h 11.0mph /  17.7km/h 50% 0.00in /  0mm
16:44 21.7 °F /  -5.7 °C 5.9 °F /  -14.5 °C 30.18in /  1021.9hPa NW 5.0mph /  8km/h 13.0mph /  20.9km/h 50% 0.00in /  0mm
16:49 21.5 °F /  -5.8 °C 6.2 °F /  -14.3 °C 30.18in /  1021.9hPa WNW 3.0mph /  4.8km/h 13.0mph /  20.9km/h 51% 0.00in /  0mm
16:54 21.1 °F /  -6.1 °C 5.8 °F /  -14.6 °C 30.18in /  1021.9hPa NW 2.0mph /  3.2km/h 9.0mph /  14.5km/h 51% 0.00in /  0mm
16:59 20.9 °F /  -6.2 °C 6.0 °F /  -14.4 °C 30.18in /  1021.9hPa NNW 6.0mph /  9.7km/h 14.0mph /  22.5km/h 52% 0.00in /  0mm
17:04 21.0 °F /  -6.1 °C 5.7 °F /  -14.6 °C 30.18in /  1021.9hPa NW 5.0mph /  8km/h 14.0mph /  22.5km/h 51% 0.00in /  0mm
17:09 20.9 °F /  -6.2 °C 6.0 °F /  -14.4 °C 30.19in /  1022.2hPa West 4.0mph /  6.4km/h 10.0mph /  16.1km/h 52% 0.00in /  0mm
17:14 20.6 °F /  -6.3 °C 5.7 °F /  -14.6 °C 30.19in /  1022.2hPa NW 2.0mph /  3.2km/h 7.0mph /  11.3km/h 52% 0.00in /  0mm
17:20 20.2 °F /  -6.6 °C 5.8 °F /  -14.6 °C 30.19in /  1022.2hPa NNW 2.0mph /  3.2km/h 5.0mph /  8km/h 53% 0.00in /  0mm
17:29 19.7 °F /  -6.8 °C 5.7 °F /  -14.6 °C 30.19in /  1022.2hPa NW 4.0mph /  6.4km/h 6.0mph /  9.7km/h 54% 0.00in /  0mm
17:34 19.7 °F /  -6.8 °C 5.7 °F /  -14.6 °C 30.19in /  1022.2hPa WNW 3.0mph /  4.8km/h 6.0mph /  9.7km/h 54% 0.00in /  0mm
17:39 19.7 °F /  -6.8 °C 6.1 °F /  -14.4 °C 30.19in /  1022.2hPa WNW 2.0mph /  3.2km/h 6.0mph /  9.7km/h 55% 0.00in /  0mm
17:44 19.7 °F /  -6.8 °C 6.1 °F /  -14.4 °C 30.20in /  1022.6hPa WNW 1.0mph /  1.6km/h 5.0mph /  8km/h 55% 0.00in /  0mm
17:49 19.7 °F /  -6.8 °C 6.1 °F /  -14.4 °C 30.20in /  1022.6hPa WNW 1.0mph /  1.6km/h 4.0mph /  6.4km/h 55% 0.00in /  0mm
17:54 19.5 °F /  -6.9 °C 5.9 °F /  -14.5 °C 30.20in /  1022.6hPa Calm   4.0mph /  6.4km/h 55% 0.00in /  0mm
17:59 19.2 °F /  -7.1 °C 6.1 °F /  -14.4 °C 30.20in /  1022.6hPa WNW 1.0mph /  1.6km/h 4.0mph /  6.4km/h 56% 0.00in /  0mm
18:04 18.9 °F /  -7.3 °C 5.8 °F /  -14.6 °C 30.20in /  1022.6hPa WNW 1.0mph /  1.6km/h 4.0mph /  6.4km/h 56% 0.00in /  0mm
18:09 18.8 °F /  -7.3 °C 6.1 °F /  -14.4 °C 30.21in /  1022.9hPa WNW 2.0mph /  3.2km/h 4.0mph /  6.4km/h 57% 0.00in /  0mm
18:15 18.8 °F /  -7.3 °C 6.1 °F /  -14.4 °C 30.21in /  1022.9hPa WNW 1.0mph /  1.6km/h 4.0mph /  6.4km/h 57% 0.00in /  0mm
18:24 18.6 °F /  -7.4 °C 5.9 °F /  -14.5 °C 30.21in /  1022.9hPa Calm   4.0mph /  6.4km/h 57% 0.00in /  0mm
18:29 18.3 °F /  -7.6 °C 6.0 °F /  -14.4 °C 30.21in /  1022.9hPa Calm   4.0mph /  6.4km/h 58% 0.00in /  0mm
18:34 18.0 °F /  -7.8 °C 5.7 °F /  -14.6 °C 30.21in /  1022.9hPa Calm   1.0mph /  1.6km/h 58% 0.00in /  0mm
18:39 17.7 °F /  -7.9 °C 5.8 °F /  -14.6 °C 30.21in /  1022.9hPa Calm   1.0mph /  1.6km/h 59% 0.00in /  0mm
18:44 17.6 °F /  -8 °C 5.7 °F /  -14.6 °C 30.21in /  1022.9hPa Calm     59% 0.00in /  0mm
18:49 17.5 °F /  -8.1 °C 6.3 °F /  -14.3 °C 30.21in /  1022.9hPa Calm     61% 0.00in /  0mm
18:54 17.3 °F /  -8.2 °C 6.5 °F /  -14.2 °C 30.21in /  1022.9hPa Calm     62% 0.00in /  0mm
19:00 17.2 °F /  -8.2 °C 6.4 °F /  -14.2 °C 30.21in /  1022.9hPa Calm     62% 0.00in /  0mm
19:04 17.0 °F /  -8.3 °C 6.6 °F /  -14.1 °C 30.21in /  1022.9hPa Calm     63% 0.00in /  0mm
19:09 16.9 °F /  -8.4 °C 6.8 °F /  -14 °C 30.21in /  1022.9hPa Calm     64% 0.00in /  0mm
19:14 16.6 °F /  -8.6 °C 6.5 °F /  -14.2 °C 30.20in /  1022.6hPa Calm     64% 0.00in /  0mm
19:19 16.3 °F /  -8.7 °C 6.6 °F /  -14.1 °C 30.21in /  1022.9hPa Calm     65% 0.00in /  0mm
19:24 15.6 °F /  -9.1 °C 5.9 °F /  -14.5 °C 30.20in /  1022.6hPa Calm     65% 0.00in /  0mm
19:29 15.0 °F /  -9.4 °C 5.7 °F /  -14.6 °C 30.20in /  1022.6hPa Calm     66% 0.00in /  0mm
19:34 15.1 °F /  -9.4 °C 6.1 °F /  -14.4 °C 30.21in /  1022.9hPa Calm     67% 0.00in /  0mm
19:40 15.2 °F /  -9.3 °C 5.9 °F /  -14.5 °C 30.21in /  1022.9hPa Calm     66% 0.00in /  0mm
19:44 15.0 °F /  -9.4 °C 6.0 °F /  -14.4 °C 30.21in /  1022.9hPa Calm   1.0mph /  1.6km/h 67% 0.00in /  0mm
19:49 14.9 °F /  -9.5 °C 6.2 °F /  -14.3 °C 30.21in /  1022.9hPa Calm   1.0mph /  1.6km/h 68% 0.00in /  0mm
19:54 15.0 °F /  -9.4 °C 6.7 °F /  -14.1 °C 30.21in /  1022.9hPa Calm     69% 0.00in /  0mm
19:59 15.4 °F /  -9.2 °C 7.0 °F /  -13.9 °C 30.21in /  1022.9hPa Calm     69% 0.00in /  0mm
20:04 15.2 °F /  -9.3 °C 6.5 °F /  -14.2 °C 30.21in /  1022.9hPa Calm     68% 0.00in /  0mm
20:09 14.6 °F /  -9.7 °C 6.0 °F /  -14.4 °C 30.21in /  1022.9hPa Calm     68% 0.00in /  0mm
20:14 13.6 °F /  -10.2 °C 5.0 °F /  -15 °C 30.21in /  1022.9hPa Calm     68% 0.00in /  0mm
20:19 12.6 °F /  -10.8 °C 4.4 °F /  -15.3 °C 30.21in /  1022.9hPa Calm     69% 0.00in /  0mm
20:24 12.3 °F /  -10.9 °C 4.7 °F /  -15.2 °C 30.21in /  1022.9hPa Calm     71% 0.00in /  0mm
20:29 12.8 °F /  -10.7 °C 5.5 °F /  -14.7 °C 30.21in /  1022.9hPa Calm     72% 0.00in /  0mm
20:34 14.2 °F /  -9.9 °C 6.8 °F /  -14 °C 30.21in /  1022.9hPa Calm   2.0mph /  3.2km/h 72% 0.00in /  0mm
20:40 15.0 °F /  -9.4 °C 7.3 °F /  -13.7 °C 30.21in /  1022.9hPa Calm   2.0mph /  3.2km/h 71% 0.00in /  0mm
20:50 14.5 °F /  -9.7 °C 6.5 °F /  -14.2 °C 30.21in /  1022.9hPa Calm     70% 0.00in /  0mm
20:59 13.3 °F /  -10.4 °C 6.0 °F /  -14.4 °C 30.22in /  1023.2hPa Calm     72% 0.00in /  0mm
21:04 13.1 °F /  -10.5 °C 6.1 °F /  -14.4 °C 30.22in /  1023.2hPa Calm     73% 0.00in /  0mm
21:09 13.1 °F /  -10.5 °C 6.4 °F /  -14.2 °C 30.22in /  1023.2hPa Calm     74% 0.00in /  0mm
21:14 13.4 °F /  -10.3 °C 7.0 °F /  -13.9 °C 30.21in /  1022.9hPa Calm     75% 0.00in /  0mm
21:19 13.4 °F /  -10.3 °C 7.0 °F /  -13.9 °C 30.22in /  1023.2hPa Calm     75% 0.00in /  0mm
21:24 13.2 °F /  -10.4 °C 6.8 °F /  -14 °C 30.21in /  1022.9hPa Calm     75% 0.00in /  0mm
21:29 13.2 °F /  -10.4 °C 6.8 °F /  -14 °C 30.21in /  1022.9hPa Calm     75% 0.00in /  0mm
21:34 13.6 °F /  -10.2 °C 7.2 °F /  -13.8 °C 30.21in /  1022.9hPa Calm     75% 0.00in /  0mm
21:40 13.6 °F /  -10.2 °C 6.9 °F /  -13.9 °C 30.21in /  1022.9hPa Calm     74% 0.00in /  0mm
21:45 13.5 °F /  -10.3 °C 6.8 °F /  -14 °C 30.21in /  1022.9hPa Calm     74% 0.00in /  0mm
21:54 13.0 °F /  -10.6 °C 6.6 °F /  -14.1 °C 30.22in /  1023.2hPa Calm     75% 0.00in /  0mm
21:59 12.7 °F /  -10.7 °C 6.3 °F /  -14.3 °C 30.22in /  1023.2hPa Calm     75% 0.00in /  0mm
22:04 12.3 °F /  -10.9 °C 5.9 °F /  -14.5 °C 30.22in /  1023.2hPa Calm     75% 0.00in /  0mm
22:09 12.2 °F /  -11 °C 6.1 °F /  -14.4 °C 30.21in /  1022.9hPa Calm     76% 0.00in /  0mm
22:14 12.0 °F /  -11.1 °C 5.9 °F /  -14.5 °C 30.22in /  1023.2hPa Calm     76% 0.00in /  0mm
22:19 11.9 °F /  -11.2 °C 6.1 °F /  -14.4 °C 30.21in /  1022.9hPa Calm     77% 0.00in /  0mm
22:25 12.0 °F /  -11.1 °C 6.2 °F /  -14.3 °C 30.22in /  1023.2hPa Calm     77% 0.00in /  0mm
22:30 12.2 °F /  -11 °C 6.7 °F /  -14.1 °C 30.22in /  1023.2hPa Calm     78% 0.00in /  0mm
22:40 12.5 °F /  -10.8 °C 7.2 °F /  -13.8 °C 30.22in /  1023.2hPa Calm     79% 0.00in /  0mm
22:45 12.7 °F /  -10.7 °C 7.4 °F /  -13.7 °C 30.22in /  1023.2hPa Calm     79% 0.00in /  0mm
22:54 13.5 °F /  -10.3 °C 8.2 °F /  -13.2 °C 30.22in /  1023.2hPa Calm     79% 0.00in /  0mm
22:59 13.9 °F /  -10.1 °C 8.6 °F /  -13 °C 30.21in /  1022.9hPa Calm     79% 0.00in /  0mm
23:04 14.1 °F /  -9.9 °C 8.8 °F /  -12.9 °C 30.21in /  1022.9hPa Calm     79% 0.00in /  0mm
23:09 14.2 °F /  -9.9 °C 8.9 °F /  -12.8 °C 30.21in /  1022.9hPa Calm     79% 0.00in /  0mm
23:14 14.3 °F /  -9.8 °C 9.0 °F /  -12.8 °C 30.21in /  1022.9hPa Calm     79% 0.00in /  0mm
23:19 14.4 °F /  -9.8 °C 8.8 °F /  -12.9 °C 30.21in /  1022.9hPa Calm     78% 0.00in /  0mm
23:24 14.3 °F /  -9.8 °C 9.0 °F /  -12.8 °C 30.21in /  1022.9hPa Calm     79% 0.00in /  0mm
23:29 14.4 °F /  -9.8 °C 9.1 °F /  -12.7 °C 30.21in /  1022.9hPa Calm     79% 0.00in /  0mm
23:35 14.5 °F /  -9.7 °C 9.2 °F /  -12.7 °C 30.20in /  1022.6hPa Calm     79% 0.00in /  0mm
23:45 14.7 °F /  -9.6 °C 9.4 °F /  -12.6 °C 30.20in /  1022.6hPa Calm     79% 0.00in /  0mm
23:54 14.9 °F /  -9.5 °C 9.6 °F /  -12.4 °C 30.21in /  1022.9hPa Calm     79% 0.00in /  0mm
23:59 15.3 °F /  -9.3 °C 10.0 °F /  -12.2 °C 30.20in /  1022.6hPa Calm     79% 0.00in /  0mm
Westford Weather
Compliments of Weather Underground

 
 
Current Radar Loop:

Copyright © WestfordWeather.net 2007-2014. All rights reserved.